sensor_id;sensor_type;location;lat;lon;timestamp;temperature;humidity
15967;DHT22;15175;48.154;11.534;2023-05-07T00:01:00;17.00;99.90
15967;DHT22;15175;48.154;11.534;2023-05-07T00:03:29;17.00;99.90
15967;DHT22;15175;48.154;11.534;2023-05-07T00:05:57;17.00;99.90
15967;DHT22;15175;48.154;11.534;2023-05-07T00:08:24;16.90;99.90
15967;DHT22;15175;48.154;11.534;2023-05-07T00:10:51;16.90;99.90
15967;DHT22;15175;48.154;11.534;2023-05-07T00:13:18;16.90;99.90
15967;DHT22;15175;48.154;11.534;2023-05-07T00:15:45;16.90;99.90
15967;DHT22;15175;48.154;11.534;2023-05-07T00:18:12;16.90;99.90
15967;DHT22;15175;48.154;11.534;2023-05-07T00:20:40;16.90;99.90
15967;DHT22;15175;48.154;11.534;2023-05-07T00:23:07;16.90;99.90
15967;DHT22;15175;48.154;11.534;2023-05-07T00:25:34;16.80;99.90
15967;DHT22;15175;48.154;11.534;2023-05-07T00:28:01;16.80;99.90
15967;DHT22;15175;48.154;11.534;2023-05-07T00:30:29;16.80;99.90
15967;DHT22;15175;48.154;11.534;2023-05-07T00:32:56;16.80;99.90
15967;DHT22;15175;48.154;11.534;2023-05-07T00:35:23;16.80;99.90
15967;DHT22;15175;48.154;11.534;2023-05-07T00:37:52;16.80;99.90
15967;DHT22;15175;48.154;11.534;2023-05-07T00:40:19;16.70;99.90
15967;DHT22;15175;48.154;11.534;2023-05-07T00:42:46;16.70;99.90
15967;DHT22;15175;48.154;11.534;2023-05-07T00:45:14;16.70;99.90
15967;DHT22;15175;48.154;11.534;2023-05-07T00:47:42;16.60;99.90
15967;DHT22;15175;48.154;11.534;2023-05-07T00:50:09;16.60;99.90
15967;DHT22;15175;48.154;11.534;2023-05-07T00:52:38;16.60;99.90
15967;DHT22;15175;48.154;11.534;2023-05-07T00:55:07;16.60;99.90
15967;DHT22;15175;48.154;11.534;2023-05-07T00:57:36;16.60;99.90
15967;DHT22;15175;48.154;11.534;2023-05-07T01:00:05;16.60;99.90
15967;DHT22;15175;48.154;11.534;2023-05-07T01:02:33;16.60;99.90
15967;DHT22;15175;48.154;11.534;2023-05-07T01:05:01;16.60;99.90
15967;DHT22;15175;48.154;11.534;2023-05-07T01:07:29;16.60;99.90
15967;DHT22;15175;48.154;11.534;2023-05-07T01:09:56;16.60;99.90
15967;DHT22;15175;48.154;11.534;2023-05-07T01:12:25;16.50;99.90
15967;DHT22;15175;48.154;11.534;2023-05-07T01:14:53;16.50;99.90
15967;DHT22;15175;48.154;11.534;2023-05-07T01:17:20;16.50;99.90
15967;DHT22;15175;48.154;11.534;2023-05-07T01:19:48;16.50;99.90
15967;DHT22;15175;48.154;11.534;2023-05-07T01:22:29;16.50;99.90
15967;DHT22;15175;48.154;11.534;2023-05-07T01:24:58;16.50;99.90
15967;DHT22;15175;48.154;11.534;2023-05-07T01:27:28;16.40;99.90
15967;DHT22;15175;48.154;11.534;2023-05-07T01:29:55;16.40;99.90
15967;DHT22;15175;48.154;11.534;2023-05-07T01:32:29;16.40;99.90
15967;DHT22;15175;48.154;11.534;2023-05-07T01:34:58;16.40;99.90
15967;DHT22;15175;48.154;11.534;2023-05-07T01:37:28;16.40;99.90
15967;DHT22;15175;48.154;11.534;2023-05-07T01:39:56;16.30;99.90
15967;DHT22;15175;48.154;11.534;2023-05-07T01:42:23;16.30;99.90
15967;DHT22;15175;48.154;11.534;2023-05-07T01:44:50;16.30;99.90
15967;DHT22;15175;48.154;11.534;2023-05-07T01:47:17;16.30;99.90
15967;DHT22;15175;48.154;11.534;2023-05-07T01:49:44;16.30;99.90
15967;DHT22;15175;48.154;11.534;2023-05-07T01:52:12;16.30;99.90
15967;DHT22;15175;48.154;11.534;2023-05-07T01:54:41;16.30;99.90
15967;DHT22;15175;48.154;11.534;2023-05-07T01:57:08;16.20;99.90
15967;DHT22;15175;48.154;11.534;2023-05-07T01:59:36;16.20;99.90
15967;DHT22;15175;48.154;11.534;2023-05-07T02:02:03;16.20;99.90
15967;DHT22;15175;48.154;11.534;2023-05-07T02:04:31;16.30;99.90
15967;DHT22;15175;48.154;11.534;2023-05-07T02:06:58;16.20;99.90
15967;DHT22;15175;48.154;11.534;2023-05-07T02:09:26;16.20;99.90
15967;DHT22;15175;48.154;11.534;2023-05-07T02:11:54;16.20;99.90
15967;DHT22;15175;48.154;11.534;2023-05-07T02:14:22;16.20;99.90
15967;DHT22;15175;48.154;11.534;2023-05-07T02:16:49;16.20;99.90
15967;DHT22;15175;48.154;11.534;2023-05-07T02:19:16;16.20;99.90
15967;DHT22;15175;48.154;11.534;2023-05-07T02:21:43;16.10;99.90
15967;DHT22;15175;48.154;11.534;2023-05-07T02:24:10;16.10;99.90
15967;DHT22;15175;48.154;11.534;2023-05-07T02:26:37;16.10;99.90
15967;DHT22;15175;48.154;11.534;2023-05-07T02:29:06;16.10;99.90
15967;DHT22;15175;48.154;11.534;2023-05-07T02:31:33;16.10;99.90
15967;DHT22;15175;48.154;11.534;2023-05-07T02:34:00;16.00;99.90
15967;DHT22;15175;48.154;11.534;2023-05-07T02:36:27;16.00;99.90
15967;DHT22;15175;48.154;11.534;2023-05-07T02:39:06;16.00;99.90
15967;DHT22;15175;48.154;11.534;2023-05-07T02:41:33;16.00;99.90
15967;DHT22;15175;48.154;11.534;2023-05-07T02:44:00;15.90;99.90
15967;DHT22;15175;48.154;11.534;2023-05-07T02:46:29;15.90;99.90
15967;DHT22;15175;48.154;11.534;2023-05-07T02:49:01;15.90;99.90
15967;DHT22;15175;48.154;11.534;2023-05-07T02:51:30;15.90;99.90
15967;DHT22;15175;48.154;11.534;2023-05-07T02:54:00;15.80;99.90
15967;DHT22;15175;48.154;11.534;2023-05-07T02:56:28;15.70;99.90
15967;DHT22;15175;48.154;11.534;2023-05-07T02:58:56;15.70;99.90
15967;DHT22;15175;48.154;11.534;2023-05-07T03:01:27;15.70;99.90
15967;DHT22;15175;48.154;11.534;2023-05-07T03:04:13;15.70;99.90
15967;DHT22;15175;48.154;11.534;2023-05-07T03:06:41;15.70;99.90
15967;DHT22;15175;48.154;11.534;2023-05-07T03:09:08;15.70;99.90
15967;DHT22;15175;48.154;11.534;2023-05-07T03:11:35;15.70;99.90
15967;DHT22;15175;48.154;11.534;2023-05-07T03:14:02;15.70;99.90
15967;DHT22;15175;48.154;11.534;2023-05-07T03:16:30;15.70;99.90
15967;DHT22;15175;48.154;11.534;2023-05-07T03:18:57;15.60;99.90
15967;DHT22;15175;48.154;11.534;2023-05-07T03:21:26;15.60;99.90
15967;DHT22;15175;48.154;11.534;2023-05-07T03:23:53;15.70;99.90
15967;DHT22;15175;48.154;11.534;2023-05-07T03:26:20;15.70;99.90
15967;DHT22;15175;48.154;11.534;2023-05-07T03:28:48;15.70;99.90
15967;DHT22;15175;48.154;11.534;2023-05-07T03:31:17;15.60;99.90
15967;DHT22;15175;48.154;11.534;2023-05-07T03:33:51;15.60;99.90
15967;DHT22;15175;48.154;11.534;2023-05-07T03:36:18;15.60;99.90
15967;DHT22;15175;48.154;11.534;2023-05-07T03:38:48;15.50;99.90
15967;DHT22;15175;48.154;11.534;2023-05-07T03:41:18;15.50;99.90
15967;DHT22;15175;48.154;11.534;2023-05-07T03:43:46;15.50;99.90
15967;DHT22;15175;48.154;11.534;2023-05-07T03:46:13;15.50;99.90
15967;DHT22;15175;48.154;11.534;2023-05-07T03:48:41;15.50;99.90
15967;DHT22;15175;48.154;11.534;2023-05-07T03:51:08;15.50;99.90
15967;DHT22;15175;48.154;11.534;2023-05-07T03:53:35;15.50;99.90
15967;DHT22;15175;48.154;11.534;2023-05-07T03:56:04;15.50;99.90
15967;DHT22;15175;48.154;11.534;2023-05-07T03:58:35;15.40;99.90
15967;DHT22;15175;48.154;11.534;2023-05-07T04:01:08;15.40;99.90
15967;DHT22;15175;48.154;11.534;2023-05-07T04:03:36;15.50;99.90
15967;DHT22;15175;48.154;11.534;2023-05-07T04:06:04;15.40;99.90
15967;DHT22;15175;48.154;11.534;2023-05-07T04:08:34;15.40;99.90
15967;DHT22;15175;48.154;11.534;2023-05-07T04:11:01;15.30;99.90
15967;DHT22;15175;48.154;11.534;2023-05-07T04:13:32;15.30;99.90
15967;DHT22;15175;48.154;11.534;2023-05-07T04:16:02;15.30;99.90
15967;DHT22;15175;48.154;11.534;2023-05-07T04:18:29;15.30;99.90
15967;DHT22;15175;48.154;11.534;2023-05-07T04:20:56;15.30;99.90
15967;DHT22;15175;48.154;11.534;2023-05-07T04:23:23;15.30;99.90
15967;DHT22;15175;48.154;11.534;2023-05-07T04:25:51;15.30;99.90
15967;DHT22;15175;48.154;11.534;2023-05-07T04:28:28;15.20;99.90
15967;DHT22;15175;48.154;11.534;2023-05-07T04:30:58;15.20;99.90
15967;DHT22;15175;48.154;11.534;2023-05-07T04:33:26;15.30;99.90
15967;DHT22;15175;48.154;11.534;2023-05-07T04:35:55;15.30;99.90
15967;DHT22;15175;48.154;11.534;2023-05-07T04:38:23;15.30;99.90
15967;DHT22;15175;48.154;11.534;2023-05-07T04:40:52;15.30;99.90
15967;DHT22;15175;48.154;11.534;2023-05-07T04:43:23;15.30;99.90
15967;DHT22;15175;48.154;11.534;2023-05-07T04:45:51;15.30;99.90
15967;DHT22;15175;48.154;11.534;2023-05-07T04:48:20;15.40;99.90
15967;DHT22;15175;48.154;11.534;2023-05-07T04:50:50;15.40;99.90
15967;DHT22;15175;48.154;11.534;2023-05-07T04:53:18;15.40;99.90
15967;DHT22;15175;48.154;11.534;2023-05-07T04:55:46;15.50;99.90
15967;DHT22;15175;48.154;11.534;2023-05-07T04:58:14;15.50;99.90
15967;DHT22;15175;48.154;11.534;2023-05-07T05:00:46;15.50;99.90
15967;DHT22;15175;48.154;11.534;2023-05-07T05:03:13;15.50;99.90
15967;DHT22;15175;48.154;11.534;2023-05-07T05:05:43;15.50;99.90
15967;DHT22;15175;48.154;11.534;2023-05-07T05:08:10;15.50;99.90
15967;DHT22;15175;48.154;11.534;2023-05-07T05:10:40;15.50;99.90
15967;DHT22;15175;48.154;11.534;2023-05-07T05:13:09;15.50;99.90
15967;DHT22;15175;48.154;11.534;2023-05-07T05:15:38;15.50;99.90
15967;DHT22;15175;48.154;11.534;2023-05-07T05:18:05;15.50;99.90
15967;DHT22;15175;48.154;11.534;2023-05-07T05:20:32;15.60;99.90
15967;DHT22;15175;48.154;11.534;2023-05-07T05:23:01;15.60;99.90
15967;DHT22;15175;48.154;11.534;2023-05-07T05:25:29;15.60;99.90
15967;DHT22;15175;48.154;11.534;2023-05-07T05:27:58;15.70;99.90
15967;DHT22;15175;48.154;11.534;2023-05-07T05:30:25;15.60;99.90
15967;DHT22;15175;48.154;11.534;2023-05-07T05:32:52;15.60;99.90
15967;DHT22;15175;48.154;11.534;2023-05-07T05:35:19;15.60;99.90
15967;DHT22;15175;48.154;11.534;2023-05-07T05:37:46;15.60;99.90
15967;DHT22;15175;48.154;11.534;2023-05-07T05:40:19;15.60;99.90
15967;DHT22;15175;48.154;11.534;2023-05-07T05:42:46;15.70;99.90
15967;DHT22;15175;48.154;11.534;2023-05-07T05:45:14;15.80;99.90
15967;DHT22;15175;48.154;11.534;2023-05-07T05:47:42;15.90;99.90
15967;DHT22;15175;48.154;11.534;2023-05-07T05:50:09;16.10;99.90
15967;DHT22;15175;48.154;11.534;2023-05-07T05:52:36;16.20;99.90
15967;DHT22;15175;48.154;11.534;2023-05-07T05:55:04;16.40;99.90
15967;DHT22;15175;48.154;11.534;2023-05-07T05:57:33;16.50;99.90
15967;DHT22;15175;48.154;11.534;2023-05-07T06:00:01;16.80;99.90
15967;DHT22;15175;48.154;11.534;2023-05-07T06:02:32;17.00;99.90
15967;DHT22;15175;48.154;11.534;2023-05-07T06:04:59;17.10;99.90
15967;DHT22;15175;48.154;11.534;2023-05-07T06:07:26;17.20;99.90
15967;DHT22;15175;48.154;11.534;2023-05-07T06:09:54;17.30;99.90
15967;DHT22;15175;48.154;11.534;2023-05-07T06:12:22;17.40;99.90
15967;DHT22;15175;48.154;11.534;2023-05-07T06:14:50;17.50;99.90
15967;DHT22;15175;48.154;11.534;2023-05-07T06:17:17;17.70;99.90
15967;DHT22;15175;48.154;11.534;2023-05-07T06:19:45;18.10;99.90
15967;DHT22;15175;48.154;11.534;2023-05-07T06:22:13;18.30;99.90
15967;DHT22;15175;48.154;11.534;2023-05-07T06:24:40;18.60;99.90
15967;DHT22;15175;48.154;11.534;2023-05-07T06:27:08;18.90;99.90
15967;DHT22;15175;48.154;11.534;2023-05-07T06:29:35;19.20;99.90
15967;DHT22;15175;48.154;11.534;2023-05-07T06:32:11;19.40;99.90
15967;DHT22;15175;48.154;11.534;2023-05-07T06:34:40;19.50;99.90
15967;DHT22;15175;48.154;11.534;2023-05-07T06:37:08;19.60;99.90
15967;DHT22;15175;48.154;11.534;2023-05-07T06:40:01;19.80;99.90
15967;DHT22;15175;48.154;11.534;2023-05-07T06:42:30;20.00;99.90
15967;DHT22;15175;48.154;11.534;2023-05-07T06:45:04;20.20;99.90
15967;DHT22;15175;48.154;11.534;2023-05-07T06:47:32;20.30;99.90
15967;DHT22;15175;48.154;11.534;2023-05-07T06:50:00;20.50;99.90
15967;DHT22;15175;48.154;11.534;2023-05-07T06:52:30;20.60;99.90
15967;DHT22;15175;48.154;11.534;2023-05-07T06:54:57;20.80;99.90
15967;DHT22;15175;48.154;11.534;2023-05-07T06:57:25;20.90;99.90
15967;DHT22;15175;48.154;11.534;2023-05-07T06:59:53;20.90;99.90
15967;DHT22;15175;48.154;11.534;2023-05-07T07:02:21;21.10;99.90
15967;DHT22;15175;48.154;11.534;2023-05-07T07:04:50;21.20;99.90
15967;DHT22;15175;48.154;11.534;2023-05-07T07:07:18;21.40;99.90
15967;DHT22;15175;48.154;11.534;2023-05-07T07:09:49;21.50;99.90
15967;DHT22;15175;48.154;11.534;2023-05-07T07:12:18;21.60;99.90
15967;DHT22;15175;48.154;11.534;2023-05-07T07:14:45;21.70;99.90
15967;DHT22;15175;48.154;11.534;2023-05-07T07:17:13;21.80;99.90
15967;DHT22;15175;48.154;11.534;2023-05-07T07:19:40;21.90;99.90
15967;DHT22;15175;48.154;11.534;2023-05-07T07:22:09;22.00;99.90
15967;DHT22;15175;48.154;11.534;2023-05-07T07:24:37;22.10;99.90
15967;DHT22;15175;48.154;11.534;2023-05-07T07:27:07;22.10;99.90
15967;DHT22;15175;48.154;11.534;2023-05-07T07:29:34;22.10;99.90
15967;DHT22;15175;48.154;11.534;2023-05-07T07:32:02;22.10;99.90
15967;DHT22;15175;48.154;11.534;2023-05-07T07:34:30;22.20;99.90
15967;DHT22;15175;48.154;11.534;2023-05-07T07:36:57;22.30;99.90
15967;DHT22;15175;48.154;11.534;2023-05-07T07:39:26;22.50;99.90
15967;DHT22;15175;48.154;11.534;2023-05-07T07:41:55;22.60;99.90
15967;DHT22;15175;48.154;11.534;2023-05-07T07:44:23;22.60;99.90
15967;DHT22;15175;48.154;11.534;2023-05-07T07:46:56;22.80;99.90
15967;DHT22;15175;48.154;11.534;2023-05-07T07:49:25;23.00;99.90
15967;DHT22;15175;48.154;11.534;2023-05-07T07:51:52;23.20;99.90
15967;DHT22;15175;48.154;11.534;2023-05-07T07:54:20;23.40;99.90
15967;DHT22;15175;48.154;11.534;2023-05-07T07:56:49;23.50;99.90
15967;DHT22;15175;48.154;11.534;2023-05-07T07:59:17;23.60;99.90
15967;DHT22;15175;48.154;11.534;2023-05-07T08:01:46;23.70;99.90
15967;DHT22;15175;48.154;11.534;2023-05-07T08:04:14;23.80;99.90
15967;DHT22;15175;48.154;11.534;2023-05-07T08:06:42;24.00;99.90
15967;DHT22;15175;48.154;11.534;2023-05-07T08:09:10;24.10;99.90
15967;DHT22;15175;48.154;11.534;2023-05-07T08:11:39;24.10;99.90
15967;DHT22;15175;48.154;11.534;2023-05-07T08:14:08;24.20;99.90
15967;DHT22;15175;48.154;11.534;2023-05-07T08:16:35;24.40;99.90
15967;DHT22;15175;48.154;11.534;2023-05-07T08:19:02;24.50;99.90
15967;DHT22;15175;48.154;11.534;2023-05-07T08:21:29;24.50;99.90
15967;DHT22;15175;48.154;11.534;2023-05-07T08:23:57;24.50;99.90
15967;DHT22;15175;48.154;11.534;2023-05-07T08:26:24;24.60;99.90
15967;DHT22;15175;48.154;11.534;2023-05-07T08:28:51;24.80;99.90
15967;DHT22;15175;48.154;11.534;2023-05-07T08:31:20;24.90;99.90
15967;DHT22;15175;48.154;11.534;2023-05-07T08:33:47;24.90;99.90
15967;DHT22;15175;48.154;11.534;2023-05-07T08:36:14;24.90;99.90
15967;DHT22;15175;48.154;11.534;2023-05-07T08:38:41;24.70;99.90
15967;DHT22;15175;48.154;11.534;2023-05-07T08:41:10;24.70;99.90
15967;DHT22;15175;48.154;11.534;2023-05-07T08:43:41;24.80;99.90
15967;DHT22;15175;48.154;11.534;2023-05-07T08:46:10;24.80;99.90
15967;DHT22;15175;48.154;11.534;2023-05-07T08:48:42;24.90;99.90
15967;DHT22;15175;48.154;11.534;2023-05-07T08:51:15;25.00;99.90
15967;DHT22;15175;48.154;11.534;2023-05-07T08:53:43;25.00;99.90
15967;DHT22;15175;48.154;11.534;2023-05-07T08:56:15;25.10;99.90
15967;DHT22;15175;48.154;11.534;2023-05-07T08:58:42;25.10;99.90
15967;DHT22;15175;48.154;11.534;2023-05-07T09:01:12;25.20;99.90
15967;DHT22;15175;48.154;11.534;2023-05-07T09:03:44;25.20;99.90
15967;DHT22;15175;48.154;11.534;2023-05-07T09:06:13;25.30;99.90
15967;DHT22;15175;48.154;11.534;2023-05-07T09:08:48;25.50;99.90
15967;DHT22;15175;48.154;11.534;2023-05-07T09:11:19;25.70;99.90
15967;DHT22;15175;48.154;11.534;2023-05-07T09:13:48;25.90;99.90
15967;DHT22;15175;48.154;11.534;2023-05-07T09:16:16;26.10;99.60
15967;DHT22;15175;48.154;11.534;2023-05-07T09:18:46;26.10;99.20
15967;DHT22;15175;48.154;11.534;2023-05-07T09:21:15;26.20;98.70
15967;DHT22;15175;48.154;11.534;2023-05-07T09:23:43;26.30;97.50
15967;DHT22;15175;48.154;11.534;2023-05-07T09:26:11;26.30;98.40
15967;DHT22;15175;48.154;11.534;2023-05-07T09:28:40;26.10;98.60
15967;DHT22;15175;48.154;11.534;2023-05-07T09:31:10;26.10;98.40
15967;DHT22;15175;48.154;11.534;2023-05-07T09:33:38;26.20;97.90
15967;DHT22;15175;48.154;11.534;2023-05-07T09:36:09;26.20;97.30
15967;DHT22;15175;48.154;11.534;2023-05-07T09:38:38;26.30;98.80
15967;DHT22;15175;48.154;11.534;2023-05-07T09:41:07;26.50;97.00
15967;DHT22;15175;48.154;11.534;2023-05-07T09:43:41;26.60;94.70
15967;DHT22;15175;48.154;11.534;2023-05-07T09:46:13;26.80;96.20
15967;DHT22;15175;48.154;11.534;2023-05-07T09:48:46;26.70;95.60
15967;DHT22;15175;48.154;11.534;2023-05-07T09:51:22;26.70;95.80
15967;DHT22;15175;48.154;11.534;2023-05-07T09:53:53;26.50;96.20
15967;DHT22;15175;48.154;11.534;2023-05-07T09:56:22;26.50;95.60
15967;DHT22;15175;48.154;11.534;2023-05-07T09:58:52;26.50;95.50
15967;DHT22;15175;48.154;11.534;2023-05-07T10:01:20;26.60;95.10
15967;DHT22;15175;48.154;11.534;2023-05-07T10:03:49;26.40;94.70
15967;DHT22;15175;48.154;11.534;2023-05-07T10:06:19;26.30;95.50
15967;DHT22;15175;48.154;11.534;2023-05-07T10:08:46;26.30;96.30
15967;DHT22;15175;48.154;11.534;2023-05-07T10:11:15;26.50;96.20
15967;DHT22;15175;48.154;11.534;2023-05-07T10:13:43;26.60;95.10
15967;DHT22;15175;48.154;11.534;2023-05-07T10:16:12;26.50;94.70
15967;DHT22;15175;48.154;11.534;2023-05-07T10:18:43;26.60;94.90
15967;DHT22;15175;48.154;11.534;2023-05-07T10:21:19;26.60;94.70
15967;DHT22;15175;48.154;11.534;2023-05-07T10:23:50;26.60;94.40
15967;DHT22;15175;48.154;11.534;2023-05-07T10:26:21;26.50;94.00
15967;DHT22;15175;48.154;11.534;2023-05-07T10:28:53;26.40;93.80
15967;DHT22;15175;48.154;11.534;2023-05-07T10:31:42;26.10;93.60
15967;DHT22;15175;48.154;11.534;2023-05-07T10:34:17;26.10;94.10
15967;DHT22;15175;48.154;11.534;2023-05-07T10:36:48;26.00;94.20
15967;DHT22;15175;48.154;11.534;2023-05-07T10:39:18;26.10;94.90
15967;DHT22;15175;48.154;11.534;2023-05-07T10:41:46;26.20;94.60
15967;DHT22;15175;48.154;11.534;2023-05-07T10:44:25;26.30;94.60
15967;DHT22;15175;48.154;11.534;2023-05-07T10:47:06;26.40;93.80
15967;DHT22;15175;48.154;11.534;2023-05-07T10:49:36;26.40;93.20
15967;DHT22;15175;48.154;11.534;2023-05-07T10:52:16;26.50;92.70
15967;DHT22;15175;48.154;11.534;2023-05-07T10:55:21;26.70;92.70
15967;DHT22;15175;48.154;11.534;2023-05-07T10:58:23;26.90;92.10
15967;DHT22;15175;48.154;11.534;2023-05-07T11:00:57;26.80;92.60
15967;DHT22;15175;48.154;11.534;2023-05-07T11:03:29;26.90;93.00
15967;DHT22;15175;48.154;11.534;2023-05-07T11:06:11;27.00;94.00
15967;DHT22;15175;48.154;11.534;2023-05-07T11:08:57;26.90;92.10
15967;DHT22;15175;48.154;11.534;2023-05-07T11:11:45;27.00;93.40
15967;DHT22;15175;48.154;11.534;2023-05-07T11:17:27;27.00;92.90
15967;DHT22;15175;48.154;11.534;2023-05-07T11:20:03;27.00;93.50
15967;DHT22;15175;48.154;11.534;2023-05-07T11:22:37;27.00;93.00
15967;DHT22;15175;48.154;11.534;2023-05-07T11:25:18;27.10;93.30
15967;DHT22;15175;48.154;11.534;2023-05-07T11:27:50;27.20;93.10
15967;DHT22;15175;48.154;11.534;2023-05-07T11:30:18;27.10;92.70
15967;DHT22;15175;48.154;11.534;2023-05-07T11:32:47;27.00;93.10
15967;DHT22;15175;48.154;11.534;2023-05-07T11:35:17;26.90;93.70
15967;DHT22;15175;48.154;11.534;2023-05-07T11:37:48;26.70;93.20
15967;DHT22;15175;48.154;11.534;2023-05-07T11:40:17;26.70;94.00
15967;DHT22;15175;48.154;11.534;2023-05-07T11:42:44;26.60;93.10
15967;DHT22;15175;48.154;11.534;2023-05-07T11:45:11;26.30;92.50
15967;DHT22;15175;48.154;11.534;2023-05-07T11:47:38;26.10;92.80
15967;DHT22;15175;48.154;11.534;2023-05-07T11:50:09;25.90;92.80
15967;DHT22;15175;48.154;11.534;2023-05-07T11:52:37;25.90;93.10
15967;DHT22;15175;48.154;11.534;2023-05-07T11:55:05;25.90;93.00
15967;DHT22;15175;48.154;11.534;2023-05-07T11:57:34;26.00;92.80
15967;DHT22;15175;48.154;11.534;2023-05-07T12:00:01;26.20;93.20
15967;DHT22;15175;48.154;11.534;2023-05-07T12:02:49;26.20;92.40
15967;DHT22;15175;48.154;11.534;2023-05-07T12:05:17;26.10;92.90
15967;DHT22;15175;48.154;11.534;2023-05-07T12:07:44;26.00;93.40
15967;DHT22;15175;48.154;11.534;2023-05-07T12:10:12;25.70;93.00
15967;DHT22;15175;48.154;11.534;2023-05-07T12:12:41;25.50;93.50
15967;DHT22;15175;48.154;11.534;2023-05-07T12:15:09;25.40;94.00
15967;DHT22;15175;48.154;11.534;2023-05-07T12:17:37;25.40;93.50
15967;DHT22;15175;48.154;11.534;2023-05-07T12:20:05;25.30;93.20
15967;DHT22;15175;48.154;11.534;2023-05-07T12:22:33;25.20;93.40
15967;DHT22;15175;48.154;11.534;2023-05-07T12:25:00;25.20;92.60
15967;DHT22;15175;48.154;11.534;2023-05-07T12:27:28;25.20;93.40
15967;DHT22;15175;48.154;11.534;2023-05-07T12:29:57;25.10;93.70
15967;DHT22;15175;48.154;11.534;2023-05-07T12:32:24;25.00;93.20
15967;DHT22;15175;48.154;11.534;2023-05-07T12:34:51;24.60;93.90
15967;DHT22;15175;48.154;11.534;2023-05-07T12:37:23;24.50;94.50
15967;DHT22;15175;48.154;11.534;2023-05-07T12:40:03;24.50;94.30
15967;DHT22;15175;48.154;11.534;2023-05-07T12:42:33;24.40;94.80
15967;DHT22;15175;48.154;11.534;2023-05-07T12:45:09;24.40;94.70
15967;DHT22;15175;48.154;11.534;2023-05-07T12:47:36;24.40;94.50
15967;DHT22;15175;48.154;11.534;2023-05-07T12:50:06;24.50;94.80
15967;DHT22;15175;48.154;11.534;2023-05-07T12:52:33;24.60;94.40
15967;DHT22;15175;48.154;11.534;2023-05-07T12:55:04;24.60;94.40
15967;DHT22;15175;48.154;11.534;2023-05-07T12:57:37;24.60;94.00
15967;DHT22;15175;48.154;11.534;2023-05-07T13:00:06;24.50;93.80
15967;DHT22;15175;48.154;11.534;2023-05-07T13:02:37;24.50;93.70
15967;DHT22;15175;48.154;11.534;2023-05-07T13:05:04;24.30;93.40
15967;DHT22;15175;48.154;11.534;2023-05-07T13:07:31;24.20;93.90
15967;DHT22;15175;48.154;11.534;2023-05-07T13:09:58;23.80;93.70
15967;DHT22;15175;48.154;11.534;2023-05-07T13:12:25;23.60;94.80
15967;DHT22;15175;48.154;11.534;2023-05-07T13:14:53;23.70;94.20
15967;DHT22;15175;48.154;11.534;2023-05-07T13:17:20;23.80;94.30
15967;DHT22;15175;48.154;11.534;2023-05-07T13:19:48;23.90;94.40
15967;DHT22;15175;48.154;11.534;2023-05-07T13:22:15;23.90;93.60
15967;DHT22;15175;48.154;11.534;2023-05-07T13:24:42;23.90;93.30
15967;DHT22;15175;48.154;11.534;2023-05-07T13:27:09;23.90;92.90
15967;DHT22;15175;48.154;11.534;2023-05-07T13:29:36;23.80;93.00
15967;DHT22;15175;48.154;11.534;2023-05-07T13:32:04;23.80;93.40
15967;DHT22;15175;48.154;11.534;2023-05-07T13:34:31;23.60;92.90
15967;DHT22;15175;48.154;11.534;2023-05-07T13:36:59;23.60;93.40
15967;DHT22;15175;48.154;11.534;2023-05-07T13:39:26;23.70;93.80
15967;DHT22;15175;48.154;11.534;2023-05-07T13:41:53;23.80;93.70
15967;DHT22;15175;48.154;11.534;2023-05-07T13:44:20;23.70;94.00
15967;DHT22;15175;48.154;11.534;2023-05-07T13:46:47;23.70;93.90
15967;DHT22;15175;48.154;11.534;2023-05-07T13:49:14;23.60;93.60
15967;DHT22;15175;48.154;11.534;2023-05-07T13:51:41;23.60;94.00
15967;DHT22;15175;48.154;11.534;2023-05-07T13:54:10;23.50;94.10
15967;DHT22;15175;48.154;11.534;2023-05-07T13:56:37;23.50;94.30
15967;DHT22;15175;48.154;11.534;2023-05-07T13:59:04;23.60;94.20
15967;DHT22;15175;48.154;11.534;2023-05-07T14:01:31;23.70;94.30
15967;DHT22;15175;48.154;11.534;2023-05-07T14:03:58;23.80;94.20
15967;DHT22;15175;48.154;11.534;2023-05-07T14:06:25;23.80;94.00
15967;DHT22;15175;48.154;11.534;2023-05-07T14:08:52;23.80;94.50
15967;DHT22;15175;48.154;11.534;2023-05-07T14:11:21;23.90;94.20
15967;DHT22;15175;48.154;11.534;2023-05-07T14:13:48;23.90;93.80
15967;DHT22;15175;48.154;11.534;2023-05-07T14:16:15;23.90;94.10
15967;DHT22;15175;48.154;11.534;2023-05-07T14:18:42;23.90;93.90
15967;DHT22;15175;48.154;11.534;2023-05-07T14:21:09;23.80;93.80
15967;DHT22;15175;48.154;11.534;2023-05-07T14:23:36;23.60;94.10
15967;DHT22;15175;48.154;11.534;2023-05-07T14:26:03;23.60;94.20
15967;DHT22;15175;48.154;11.534;2023-05-07T14:28:31;23.70;94.10
15967;DHT22;15175;48.154;11.534;2023-05-07T14:30:59;23.60;94.00
15967;DHT22;15175;48.154;11.534;2023-05-07T14:33:26;23.60;94.40
15967;DHT22;15175;48.154;11.534;2023-05-07T14:35:53;23.50;94.70
15967;DHT22;15175;48.154;11.534;2023-05-07T14:38:20;23.50;94.90
15967;DHT22;15175;48.154;11.534;2023-05-07T14:40:47;23.50;95.40
15967;DHT22;15175;48.154;11.534;2023-05-07T14:43:15;23.40;95.50
15967;DHT22;15175;48.154;11.534;2023-05-07T14:45:43;23.40;95.70
15967;DHT22;15175;48.154;11.534;2023-05-07T14:48:10;23.50;95.70
15967;DHT22;15175;48.154;11.534;2023-05-07T14:50:40;23.50;95.40
15967;DHT22;15175;48.154;11.534;2023-05-07T14:53:07;23.60;95.40
15967;DHT22;15175;48.154;11.534;2023-05-07T14:55:34;23.60;95.60
15967;DHT22;15175;48.154;11.534;2023-05-07T14:58:01;23.50;95.50
15967;DHT22;15175;48.154;11.534;2023-05-07T15:00:28;23.50;95.90
15967;DHT22;15175;48.154;11.534;2023-05-07T15:03:04;23.40;95.80
15967;DHT22;15175;48.154;11.534;2023-05-07T15:05:32;23.30;95.80
15967;DHT22;15175;48.154;11.534;2023-05-07T15:07:59;23.20;96.30
15967;DHT22;15175;48.154;11.534;2023-05-07T15:10:26;23.20;96.30
15967;DHT22;15175;48.154;11.534;2023-05-07T15:12:53;23.10;96.60
15967;DHT22;15175;48.154;11.534;2023-05-07T15:15:21;23.00;96.80
15967;DHT22;15175;48.154;11.534;2023-05-07T15:17:48;22.90;97.10
15967;DHT22;15175;48.154;11.534;2023-05-07T15:20:17;22.90;97.10
15967;DHT22;15175;48.154;11.534;2023-05-07T15:22:44;22.90;97.30
15967;DHT22;15175;48.154;11.534;2023-05-07T15:25:12;22.70;97.40
15967;DHT22;15175;48.154;11.534;2023-05-07T15:27:39;22.70;97.50
15967;DHT22;15175;48.154;11.534;2023-05-07T15:30:07;22.70;97.60